Airfield :
LOGIN :

Register | Disclaimer

   EN    FR    IT 

 










Legend :    VFR   Marginal VFR   IFR   Intensive IFR   Very Intensive IFR
Visi :
Ceiling :
>= 8 km
>= 3000ft
5 to 8 km
1000 to 3000 ft
1500m to 5 km
500 to 1000 ft
800 to 1500m
200 to 500 ft
< 800m
< 200 ft
Symbols :   Thunderstorms  Fog  Heavy snow  Heavy precipitations  Wind > 20 kt
SIGMETs :     Misc.  Thunderstorms  Icing  Turbulence  Mountain Waves  Volcanic Ashes






- Airport Elevation : 600 ft
- IATA code : VIE


LOWW - Vienna Schwechat

CURRENT METAR :
  • 172120Z 31018KT CAVOK 04/00 Q1028 NOSIG

EXPIRED METARs :
  • 172050Z 32018KT 9999 FEW015 04/01 Q1027 NOSIG
  • 172020Z 31016G26KT 9999 -SHRA FEW013 SCT018 BKN050 03/01 Q1027 NOSIG
  • 171950Z 32012KT 9999 -SHRA FEW007 SCT011 BKN017 03/02 Q1026 TEMPO BKN014
  • 171920Z 31013KT 9999 -SHRA FEW006 SCT010 BKN014 02/01 Q1026 RESHRA TEMPO BKN009
  • 171850Z 33017KT 6000 SHRA FEW007 SCT010 BKN015 FEW030CB 02/01 Q1026 RETS BECMG -SHRA

TAF TAF LOWW
Valid from the 17 at 21:00 until the 19 at 03:00 UTC


172015Z 1721/1903 33018G28KT 9999 FEW030 TX05/1813Z TNM02/1903Z
TEMPO 1800/1811 34012KT
BECMG 1817/1819 31005KT



MET'MAP, your aeronautical weather chart ! - Copyright ORBIFLY December 2007 - Disclaimer

ORBIFLY MET'MAP TEAM :

Programming & Development : Alexandra Zaïnal
Concept & original design : Baudouin d'Aumeries
Assistance for programming : Marc-Olivier Méhu
Technical & hardware support : Manuel Goepfert

Contact : metmap@orbifly.com




SOURCES & CREDITS :

   NOAA